.
WxDataArchive / Data Records for 2011-07-24
2011-07-23 July 2011 2011-07-25

Data Records for Sunday, 24 July 2011

Time	Temp	Chill	HIndex	Humid	Dewpt	 Wind 	HiWind	WindDir	Rain 	Barom 
-----	----	-----	------	-----	-----	------	------	-------	-----	----- 
00:00	77.2	77.2	78.8	84	72.0	0	0	---	0.00	29.980 
00:05	77.2	77.2	78.8	84	72.0	0	0	---	0.00	29.980 
00:10	77.2	77.2	78.8	84	72.0	0	2	90	0.00	29.980 
00:15	77.2	77.2	78.8	84	72.0	0	1	90	0.00	29.977 
00:20	77.2	77.2	78.8	84	72.0	0	1	90	0.00	29.977 
00:25	77.2	77.2	78.8	84	72.0	0	0	---	0.00	29.977 
00:30	77.0	77.0	78.4	84	71.8	0	0	---	0.00	29.973 
00:35	77.0	77.0	78.4	85	72.1	0	0	---	0.00	29.973 
00:40	76.8	76.8	78.0	85	71.9	0	0	---	0.00	29.973 
00:45	76.8	76.8	78.0	85	71.9	0	0	---	0.00	29.963 
00:50	76.7	76.7	77.8	85	71.8	0	0	---	0.00	29.963 
00:55	76.7	76.7	77.8	86	72.2	0	1	90	0.00	29.963 
01:00	76.7	76.7	77.8	85	71.8	0	1	90	0.00	29.959 
01:05	76.5	76.5	77.4	86	72.0	0	0	---	0.00	29.959 
01:10	76.5	76.5	77.4	86	72.0	0	0	---	0.00	29.959 
01:15	76.3	76.3	77.0	86	71.8	0	0	---	0.00	29.946 
01:20	76.3	76.3	77.0	86	71.8	0	0	---	0.00	29.946 
01:25	76.1	76.1	76.6	86	71.6	0	0	---	0.00	29.946 
01:30	76.0	76.0	76.4	87	71.8	0	0	---	0.00	29.954 
01:35	76.0	76.0	76.4	87	71.8	0	0	---	0.00	29.954 
01:40	75.8	75.8	76.0	87	71.6	0	0	---	0.00	29.954 
01:45	75.8	75.8	76.0	87	71.6	0	0	---	0.00	29.951 
01:50	75.8	75.8	76.0	87	71.6	0	0	---	0.00	29.951 
01:55	75.8	75.8	75.9	88	72.0	0	0	---	0.00	29.951 
02:00	75.8	75.8	75.9	88	72.0	0	0	---	0.00	29.943 
02:05	75.8	75.8	75.9	88	72.0	0	0	---	0.00	29.943 
02:10	75.8	75.8	75.9	88	72.0	0	0	---	0.00	29.943 
02:15	75.8	75.8	75.9	88	72.0	0	0	---	0.00	29.953 
02:20	75.8	75.8	75.9	88	72.0	0	0	---	0.00	29.953 
02:25	75.8	75.8	75.9	88	72.0	0	0	---	0.00	29.953 
02:30	75.8	75.8	75.9	88	72.0	0	0	---	0.00	29.961 
02:35	76.0	76.0	76.3	88	72.2	0	2	90	0.00	29.961 
02:40	76.0	76.0	76.4	87	71.8	0	1	90	0.00	29.961 
02:45	76.1	76.1	76.6	86	71.6	0	2	90	0.00	29.961 
02:50	76.3	76.3	77.2	84	71.1	0	2	90	0.00	29.961 
02:55	76.5	76.5	77.6	83	70.9	0	1	90	0.00	29.961 
03:00	76.5	76.5	77.7	82	70.6	0	1	90	0.00	29.949 
03:05	76.5	76.5	77.7	81	70.2	0	2	90	0.00	29.949 
03:10	76.7	76.7	78.0	81	70.4	0	1	90	0.00	29.949 
03:15	76.5	76.5	77.7	81	70.2	0	3	270	0.00	29.944 
03:20	76.3	76.3	77.4	81	70.0	0	2	270	0.00	29.944 
03:25	76.1	76.1	77.0	82	70.2	0	1	270	0.00	29.944 
03:30	76.0	76.0	76.8	82	70.1	0	1	270	0.00	29.944 
03:35	76.0	76.0	76.7	83	70.4	0	1	270	0.00	29.944 
03:40	75.8	75.8	76.4	83	70.3	0	0	---	0.00	29.944 
03:45	75.6	75.6	76.1	83	70.1	0	0	---	0.00	29.940 
03:50	75.4	75.4	75.7	84	70.2	0	0	---	0.00	29.940 
03:55	75.3	75.3	75.5	84	70.1	0	0	---	0.00	29.940 
04:00	75.3	75.3	75.5	84	70.1	0	0	---	0.00	29.931 
04:05	75.1	75.1	75.2	84	69.9	0	0	---	0.00	29.931 
04:10	74.9	74.9	74.9	85	70.1	0	0	---	0.00	29.931 
04:15	74.7	74.7	74.7	85	69.9	0	0	---	0.00	29.934 
04:20	74.7	74.7	74.7	85	69.9	0	0	---	0.00	29.934 
04:25	74.6	74.6	74.6	86	70.1	0	0	---	0.00	29.934 
04:30	74.4	74.4	74.4	86	69.9	0	0	---	0.00	29.944 
04:35	74.4	74.4	74.4	86	69.9	0	0	---	0.00	29.944 
04:40	74.2	74.2	74.2	86	69.7	0	0	---	0.00	29.944 
04:45	74.0	74.0	74.0	86	69.5	0	0	---	0.00	29.949 
04:50	74.0	74.0	74.0	87	69.9	0	0	---	0.00	29.949 
04:55	73.9	73.9	73.9	87	69.8	0	0	---	0.00	29.949 
05:00	73.9	73.9	73.9	88	70.1	0	0	---	0.00	29.952 
05:05	73.7	73.7	73.7	88	69.9	0	0	---	0.00	29.952 
05:10	73.7	73.7	73.7	88	69.9	0	0	---	0.00	29.952 
05:15	73.7	73.7	73.7	88	69.9	0	0	---	0.00	29.961 
05:20	73.5	73.5	73.5	88	69.7	0	0	---	0.00	29.961 
05:25	73.5	73.5	73.5	89	70.0	0	0	---	0.00	29.961 
05:30	73.5	73.5	73.5	89	70.0	0	0	---	0.00	29.966 
05:35	73.5	73.5	73.5	89	70.0	0	0	---	0.00	29.966 
05:40	73.5	73.5	73.5	89	70.0	0	0	---	0.00	29.966 
05:45	73.5	73.5	73.5	89	70.0	0	0	---	0.00	29.966 
05:50	73.5	73.5	73.5	90	70.4	0	0	---	0.00	29.966 
05:55	73.5	73.5	73.5	90	70.4	0	0	---	0.00	29.966 
06:00	73.5	73.5	73.5	90	70.4	0	0	---	0.00	29.977 
06:05	73.5	73.5	73.5	90	70.4	0	0	---	0.00	29.977 
06:10	73.5	73.5	73.5	90	70.4	0	0	---	0.00	29.977 
06:15	73.5	73.5	73.5	90	70.4	0	0	---	0.00	29.979 
06:20	73.5	73.5	73.5	90	70.4	0	0	---	0.00	29.979 
06:25	73.5	73.5	73.5	90	70.4	0	0	---	0.00	29.979 
06:30	73.7	73.7	73.7	90	70.6	0	0	---	0.00	29.971 
06:35	73.7	73.7	73.7	90	70.6	0	0	---	0.00	29.971 
06:40	73.7	73.7	73.7	90	70.6	0	0	---	0.00	29.971 
06:45	73.7	73.7	73.7	91	70.9	0	0	---	0.00	29.971 
06:50	73.9	73.9	73.9	91	71.1	0	0	---	0.00	29.971 
06:55	74.0	74.0	74.0	91	71.2	0	0	---	0.00	29.971 
07:00	74.0	74.0	74.0	91	71.2	0	0	---	0.00	29.970 
07:05	74.2	74.2	74.2	91	71.4	0	0	---	0.00	29.970 
07:10	74.2	74.2	74.2	91	71.4	0	0	---	0.00	29.970 
07:15	74.4	74.4	74.4	91	71.6	0	0	---	0.00	29.972 
07:20	74.6	74.6	74.6	91	71.8	0	0	---	0.00	29.972 
07:25	74.6	74.6	74.6	91	71.8	0	0	---	0.00	29.972 
07:30	74.7	74.7	74.7	91	71.9	0	0	---	0.00	29.958 
07:35	74.9	74.9	74.9	90	71.8	0	0	---	0.00	29.958 
07:40	75.1	75.1	74.3	90	72.0	0	0	---	0.00	29.958 
07:45	75.3	75.3	74.7	90	72.2	0	1	270	0.00	29.959 
07:50	75.6	75.6	75.4	89	72.1	0	0	---	0.00	29.959 
07:55	75.8	75.8	75.9	88	72.0	0	1	270	0.00	29.959 
08:00	76.0	76.0	76.3	88	72.2	0	1	270	0.00	29.953 
08:05	76.3	76.3	76.9	87	72.1	0	1	270	0.00	29.953 
08:10	76.5	76.5	77.4	86	72.0	0	1	270	0.00	29.953 
08:15	76.7	76.7	77.8	86	72.2	0	0	---	0.00	29.968 
08:20	76.8	76.8	78.0	85	71.9	0	1	270	0.00	29.968 
08:25	77.0	77.0	78.4	85	72.1	0	0	---	0.00	29.968 
08:30	77.2	77.2	78.8	85	72.3	0	0	---	0.00	29.966 
08:35	77.2	77.2	78.8	84	72.0	0	1	0	0.00	29.966 
08:40	77.4	77.4	79.2	84	72.2	0	1	0	0.00	29.966 
08:45	77.4	77.4	79.2	84	72.2	0	1	0	0.00	29.983 
08:50	77.6	77.6	79.6	84	72.4	0	1	0	0.00	29.983 
08:55	77.6	77.6	79.6	84	72.4	0	1	0	0.00	29.983 
09:00	77.6	77.6	79.6	84	72.4	0	1	0	0.00	29.985 
09:05	77.7	77.7	79.8	84	72.5	0	1	0	0.00	29.985 
09:10	77.7	77.7	79.8	84	72.5	0	2	0	0.00	29.985 
09:15	77.9	77.9	80.2	84	72.7	0	1	0	0.00	29.988 
09:20	77.9	77.9	80.2	84	72.7	0	1	0	0.00	29.988 
09:25	78.1	78.1	80.6	84	72.9	0	1	0	0.00	29.988 
09:30	78.3	78.3	81.0	84	73.1	0	1	0	0.00	29.982 
09:35	78.5	78.5	81.4	84	73.2	0	1	0	0.00	29.982 
09:40	78.6	78.6	81.6	83	73.0	0	1	0	0.00	29.982 
09:45	78.8	78.8	82.0	83	73.2	0	1	0	0.00	29.974 
09:50	79.4	79.4	83.3	83	73.8	0	1	0	0.00	29.974 
09:55	79.8	79.8	84.1	82	73.8	0	1	0	0.00	29.974 
10:00	80.3	80.3	85.0	81	73.9	0	1	0	0.00	29.971 
10:05	80.9	80.9	86.2	80	74.1	0	1	0	0.00	29.971 
10:10	81.4	81.4	87.1	79	74.2	0	2	0	0.00	29.971 
10:15	82.0	82.0	88.0	77	74.1	0	2	0	0.00	29.968 
10:20	82.6	82.6	88.9	75	73.8	1	2	0	0.00	29.968 
10:25	83.2	83.2	90.0	74	74.0	1	3	0	0.00	29.968 
10:30	83.6	83.6	90.9	74	74.4	1	3	0	0.00	29.964 
10:35	84.0	84.0	91.1	72	74.0	1	3	315	0.00	29.964 
10:40	84.3	84.3	91.1	70	73.4	1	2	315	0.00	29.964 
10:45	84.5	84.5	91.6	70	73.6	1	3	315	0.00	29.965 
10:50	84.9	84.9	92.1	69	73.6	0	2	315	0.00	29.965 
10:55	85.1	85.1	92.2	68	73.3	0	2	315	0.00	29.965 
11:00	85.5	85.5	93.1	68	73.7	1	3	315	0.00	29.964 
11:05	85.5	85.5	92.7	67	73.3	1	2	315	0.00	29.964 
11:10	85.9	85.9	93.6	67	73.6	1	2	315	0.00	29.964 
11:15	86.5	86.5	94.1	65	73.3	0	2	315	0.00	29.965 
11:20	86.7	86.7	94.5	65	73.5	0	1	315	0.00	29.965 
11:25	87.0	87.0	94.3	63	72.8	1	3	315	0.00	29.965 
11:30	87.4	87.4	95.7	64	73.7	1	2	315	0.00	29.957 
11:35	87.6	87.6	95.2	62	72.9	1	4	90	0.00	29.957 
11:40	88.0	88.0	96.1	62	73.3	0	3	90	0.00	29.957 
11:45	88.4	88.4	96.5	61	73.2	1	3	90	0.00	29.964 
11:50	88.6	88.6	97.0	61	73.4	1	3	90	0.00	29.964 
11:55	88.8	88.8	96.9	60	73.1	0	1	90	0.00	29.964 
12:00	88.8	88.8	96.4	59	72.6	0	3	90	0.00	29.963 
12:05	88.6	88.6	96.5	60	72.9	0	2	90	0.00	29.963 
12:10	88.6	88.6	97.0	61	73.4	0	2	90	0.00	29.963 
12:15	88.8	88.8	96.9	60	73.1	1	3	90	0.00	29.964 
12:20	89.0	89.0	96.8	59	72.8	0	2	90	0.00	29.964 
12:25	89.3	89.3	97.0	58	72.5	0	1	90	0.00	29.964 
12:30	89.7	89.7	97.9	58	72.9	0	0	---	0.00	29.960 
12:35	89.9	89.9	98.3	58	73.1	1	3	90	0.00	29.960 
12:40	89.9	89.9	98.9	59	73.6	1	3	90	0.00	29.960 
12:45	89.7	89.7	99.0	60	73.9	1	2	90	0.00	29.954 
12:50	89.7	89.7	99.0	60	73.9	1	4	90	0.00	29.954 
12:55	89.7	89.7	99.5	61	74.4	1	3	0	0.00	29.954 
13:00	89.7	89.7	99.5	61	74.4	0	1	0	0.00	29.949 
13:05	89.9	89.9	100.0	61	74.6	0	2	0	0.00	29.949 
13:10	89.9	89.9	100.0	61	74.6	0	2	0	0.00	29.949 
13:15	89.7	89.7	100.7	63	75.4	0	2	0	0.00	29.949 
13:20	89.5	89.5	100.7	64	75.7	1	2	0	0.00	29.949 
13:25	89.0	89.0	100.0	65	75.7	1	2	0	0.00	29.949 
13:30	88.6	88.6	99.0	65	75.3	1	3	292	0.00	29.953 
13:35	88.4	88.4	99.1	66	75.6	1	4	292	0.00	29.953 
13:40	88.2	88.2	99.1	67	75.8	1	2	270	0.00	29.953 
13:45	88.0	88.0	99.1	68	76.1	1	2	270	0.00	29.948 
13:50	88.0	88.0	99.1	68	76.1	0	1	270	0.00	29.948 
13:55	88.0	88.0	99.1	68	76.1	1	3	270	0.00	29.948 
14:00	87.8	87.8	98.6	68	75.9	1	3	270	0.00	29.946 
14:05	87.6	87.6	98.6	69	76.1	2	4	270	0.00	29.946 
14:10	87.6	87.6	98.6	69	76.1	0	3	135	0.00	29.946 
14:15	87.6	87.6	98.6	69	76.1	0	2	135	0.00	29.932 
14:20	87.4	87.4	98.1	69	75.9	1	2	135	0.00	29.932 
14:25	87.2	87.2	97.6	69	75.8	3	6	270	0.00	29.932 
14:30	86.7	86.7	97.3	71	76.1	3	4	292	0.00	29.933 
14:35	85.3	85.3	96.8	78	77.6	2	4	270	0.07	29.933 
14:40	84.0	84.0	94.4	81	77.5	1	3	270	0.00	29.933 
14:45	83.2	83.2	93.2	84	77.8	1	3	270	0.00	29.933 
14:50	82.6	82.6	92.1	86	78.0	1	6	270	0.00	29.933 
14:55	82.0	82.0	90.4	86	77.4	3	5	270	0.00	29.933 
15:00	81.1	81.1	86.9	81	74.7	3	7	292	0.00	29.934 
15:05	80.3	80.3	84.7	79	73.2	2	9	292	0.00	29.934 
15:10	79.8	79.8	83.3	76	71.5	2	9	270	0.00	29.934 
15:15	80.3	80.3	84.7	79	73.2	0	3	292	0.00	29.957 
15:20	80.9	80.9	85.8	78	73.4	1	4	270	0.00	29.957 
15:25	81.2	81.2	85.9	75	72.5	1	3	270	0.00	29.957 
15:30	81.6	81.6	86.1	72	71.7	1	3	248	0.00	29.952 
15:35	81.8	81.8	86.5	72	71.9	1	6	248	0.00	29.952 
15:40	81.6	81.6	86.5	74	72.5	1	5	90	0.00	29.952 
15:45	81.2	81.2	85.7	74	72.1	0	3	90	0.00	29.940 
15:50	81.1	81.1	85.3	73	71.6	0	1	90	0.00	29.940 
15:55	80.7	80.7	84.1	70	70.0	1	3	90	0.00	29.940 
16:00	80.5	80.5	83.8	70	69.8	1	3	90	0.00	29.943 
16:05	80.3	80.3	83.7	72	70.4	1	3	90	0.00	29.943 
16:10	80.3	80.3	83.9	73	70.8	0	2	90	0.00	29.943 
16:15	80.3	80.3	83.9	73	70.8	0	1	90	0.00	29.947 
16:20	80.3	80.3	83.9	73	70.8	0	1	90	0.00	29.947 
16:25	80.3	80.3	83.9	73	70.8	0	0	---	0.00	29.947 
16:30	80.5	80.5	84.4	74	71.4	0	0	---	0.00	29.944 
16:35	80.5	80.5	84.1	72	70.6	0	0	---	0.00	29.944 
16:40	80.5	80.5	84.1	72	70.6	0	0	---	0.00	29.944 
16:45	80.5	80.5	84.2	73	71.0	0	0	---	0.00	29.945 
16:50	80.9	80.9	85.0	73	71.4	0	0	---	0.00	29.945 
16:55	80.9	80.9	85.0	73	71.4	0	0	---	0.00	29.945 
17:00	80.7	80.7	84.6	73	71.2	1	3	90	0.00	29.934 
17:05	81.1	81.1	85.5	74	72.0	0	1	90	0.00	29.934 
17:10	81.4	81.4	85.9	73	71.9	0	1	90	0.00	29.934 
17:15	81.8	81.8	86.5	72	71.9	0	2	90	0.00	29.936 
17:20	82.0	82.0	87.1	73	72.5	1	3	90	0.00	29.936 
17:25	82.2	82.2	87.3	72	72.2	0	0	---	0.00	29.936 
17:30	82.6	82.6	87.8	71	72.2	0	1	90	0.00	29.924 
17:35	83.0	83.0	88.9	72	73.0	0	0	---	0.00	29.924 
17:40	83.2	83.2	89.7	73	73.6	0	0	---	0.00	29.924 
17:45	83.4	83.4	90.1	73	73.8	0	0	---	0.00	29.926 
17:50	83.4	83.4	90.1	73	73.8	0	0	---	0.00	29.926 
17:55	83.6	83.6	90.5	73	74.0	0	1	90	0.00	29.926 
18:00	83.6	83.6	90.9	74	74.4	0	1	90	0.00	29.930 
18:05	83.6	83.6	91.2	75	74.8	0	1	90	0.00	29.930 
18:10	83.4	83.4	90.4	74	74.2	0	1	90	0.00	29.930 
18:15	83.2	83.2	89.7	73	73.6	1	4	90	0.00	29.943 
18:20	83.0	83.0	89.2	73	73.4	0	1	45	0.00	29.943 
18:25	82.6	82.6	88.4	73	73.0	1	4	45	0.00	29.943 
18:30	82.4	82.4	88.2	74	73.3	0	2	90	0.00	29.948 
18:35	82.4	82.4	88.2	74	73.3	0	1	90	0.00	29.948 
18:40	82.2	82.2	87.8	74	73.1	0	1	90	0.00	29.948 
18:45	82.0	82.0	87.3	74	72.9	0	2	90	0.00	29.952 
18:50	81.8	81.8	86.9	74	72.7	0	3	90	0.00	29.952 
18:55	81.6	81.6	86.7	75	72.9	0	2	90	0.00	29.952 
19:00	81.4	81.4	86.5	76	73.1	1	5	90	0.01	29.953 
19:05	80.9	80.9	85.8	78	73.4	0	2	90	0.04	29.953 
19:10	79.9	79.9	84.3	82	73.9	1	3	90	0.18	29.953 
19:15	78.5	78.5	81.3	82	72.5	0	2	90	0.11	29.951 
19:20	76.7	76.7	77.9	83	71.1	0	0	---	0.04	29.951 
19:25	75.8	75.8	76.1	86	71.3	0	0	---	0.02	29.951 
19:30	75.4	75.4	75.1	88	71.6	0	0	---	0.00	29.958 
19:35	75.6	75.6	75.2	90	72.4	0	1	90	0.03	29.958 
19:40	75.4	75.4	74.7	91	72.6	0	0	---	0.02	29.958 
19:45	75.4	75.4	74.7	91	72.6	0	0	---	0.00	29.952 
19:50	75.3	75.3	74.5	91	72.5	0	0	---	0.00	29.952 
19:55	75.3	75.3	74.3	92	72.8	0	0	---	0.00	29.952 
20:00	75.3	75.3	74.3	92	72.8	0	0	---	0.01	29.945 
20:05	75.1	75.1	73.9	92	72.6	0	0	---	0.00	29.945 
20:10	74.7	74.7	74.7	92	72.2	0	0	---	0.00	29.945 
20:15	74.6	74.6	74.6	92	72.1	0	0	---	0.00	29.956 
20:20	74.4	74.4	74.4	92	71.9	0	0	---	0.00	29.956 
20:25	74.4	74.4	74.4	92	71.9	0	0	---	0.00	29.956 
20:30	74.2	74.2	74.2	92	71.7	0	0	---	0.00	29.948 
20:35	74.2	74.2	74.2	92	71.7	0	0	---	0.00	29.948 
20:40	74.4	74.4	74.4	93	72.2	0	0	---	0.00	29.948 
20:45	74.6	74.6	74.6	93	72.4	0	0	---	0.00	29.954 
20:50	74.7	74.7	74.7	93	72.5	0	1	90	0.00	29.954 
20:55	74.7	74.7	74.7	93	72.5	0	0	---	0.00	29.954 
21:00	74.6	74.6	74.6	94	72.8	0	0	---	0.00	29.941 
21:05	74.6	74.6	74.6	94	72.8	0	0	---	0.00	29.941 
21:10	74.7	74.7	74.7	94	72.9	0	0	---	0.00	29.941 
21:15	74.7	74.7	74.7	94	72.9	0	0	---	0.00	29.935 
21:20	74.7	74.7	74.7	94	72.9	0	0	---	0.00	29.935 
21:25	74.6	74.6	74.6	94	72.8	0	0	---	0.00	29.935 
21:30	74.6	74.6	74.6	94	72.8	0	0	---	0.00	29.934 
21:35	74.6	74.6	74.6	94	72.8	0	0	---	0.00	29.934 
21:40	74.6	74.6	74.6	94	72.8	0	0	---	0.00	29.934 
21:45	74.7	74.7	74.7	94	72.9	0	0	---	0.00	29.933 
21:50	74.7	74.7	74.7	94	72.9	0	0	---	0.00	29.933 
21:55	74.7	74.7	74.7	94	72.9	0	0	---	0.00	29.933 
22:00	74.7	74.7	74.7	94	72.9	0	1	90	0.00	29.930 
22:05	74.9	74.9	74.9	95	73.4	0	0	---	0.00	29.930 
22:10	74.9	74.9	74.9	95	73.4	0	1	90	0.00	29.930 
22:15	74.9	74.9	74.9	95	73.4	0	0	---	0.00	29.925 
22:20	74.9	74.9	74.9	95	73.4	0	1	90	0.00	29.925 
22:25	75.1	75.1	73.4	95	73.6	0	1	90	0.00	29.925 
22:30	75.1	75.1	73.4	95	73.6	0	0	---	0.00	29.931 
22:35	75.1	75.1	73.4	95	73.6	0	1	90	0.00	29.931 
22:40	75.1	75.1	73.4	95	73.6	0	1	90	0.00	29.931 
22:45	74.9	74.9	74.9	95	73.4	0	0	---	0.00	29.930 
22:50	74.9	74.9	74.9	94	73.0	0	0	---	0.00	29.930 
22:55	74.9	74.9	74.9	95	73.4	0	0	---	0.00	29.930 
23:00	74.6	74.6	74.6	94	72.8	0	1	90	0.00	29.933 
23:05	74.4	74.4	74.4	94	72.6	0	1	90	0.00	29.933 
23:10	74.4	74.4	74.4	94	72.6	0	1	90	0.00	29.933 
23:15	74.4	74.4	74.4	94	72.6	0	0	---	0.00	29.934 
23:20	74.4	74.4	74.4	94	72.6	0	0	---	0.00	29.934 
23:25	74.2	74.2	74.2	94	72.4	0	0	---	0.00	29.934 
23:30	74.0	74.0	74.0	94	72.2	0	0	---	0.00	29.934 
23:35	73.9	73.9	73.9	94	72.1	0	0	---	0.00	29.934 
23:40	73.9	73.9	73.9	94	72.1	0	0	---	0.00	29.934 
23:45	73.9	73.9	73.9	94	72.1	0	0	---	0.00	29.930 
23:50	73.9	73.9	73.9	94	72.1	0	0	---	0.00	29.930 
23:55	73.9	73.9	73.9	94	72.1	0	0	---	0.00	29.930 

CoCoRaHS
IN-AL-39
A2 Web Hosting
Creative Commons License
GoDaddy
search engine by freefind advanced

loaded 2018-11-14 00:26:02 • last modified 2010-11-18 10:43:29
Privacy PolicyDisclaimer
• wx.awcolley.com is powered by PmWiki v.2002016 •
• all content (unless otherwise noted) © 2018 A W Colley